createdAt,value
2022-12-19T00:00:02.298Z,76.30
2022-12-19T00:01:22.834Z,74.10
2022-12-19T00:02:26.121Z,68.43
2022-12-19T00:03:28.760Z,67.90
2022-12-19T00:04:31.191Z,68.35
2022-12-19T00:05:37.782Z,66.15
2022-12-19T00:06:41.913Z,59.72
2022-12-19T00:07:48.749Z,65.15
2022-12-19T00:08:52.635Z,61.45
2022-12-19T00:09:54.942Z,65.00
2022-12-19T00:11:00.323Z,64.88
2022-12-19T00:12:02.991Z,65.32
2022-12-19T00:13:05.344Z,61.78
2022-12-19T00:14:10.193Z,61.75
2022-12-19T00:15:12.514Z,57.22
2022-12-19T00:16:19.062Z,59.58
2022-12-19T00:17:21.502Z,57.13
2022-12-19T00:18:23.830Z,56.92
2022-12-19T00:19:26.190Z,59.13
2022-12-19T00:20:28.769Z,55.17
2022-12-19T00:21:34.695Z,53.75
2022-12-19T00:22:37.486Z,53.92
2022-12-19T00:23:40.486Z,53.03
2022-12-19T00:24:42.911Z,50.15
2022-12-19T00:25:45.260Z,53.75
2022-12-19T00:26:48.317Z,53.30
2022-12-19T00:27:50.654Z,53.17
2022-12-19T00:28:55.825Z,47.95
2022-12-19T00:30:00.017Z,45.72
2022-12-19T00:31:03.016Z,47.80
2022-12-19T00:32:05.469Z,47.38
2022-12-19T00:33:07.861Z,45.80
2022-12-19T00:34:10.702Z,48.63
2022-12-19T00:35:15.589Z,47.30
2022-12-19T00:36:23.442Z,47.20
2022-12-19T00:37:25.810Z,46.70
2022-12-19T00:38:30.178Z,46.35
2022-12-19T00:39:32.523Z,43.80
2022-12-19T00:40:34.901Z,43.67
2022-12-19T00:41:41.621Z,45.50
2022-12-19T00:42:48.669Z,44.70
2022-12-19T00:44:02.332Z,41.60
2022-12-19T00:45:07.356Z,41.90
2022-12-19T00:46:12.608Z,44.53
2022-12-19T00:47:15.938Z,39.83
2022-12-19T00:48:18.521Z,37.67
2022-12-19T00:49:21.994Z,38.67
2022-12-19T00:50:24.417Z,41.22
2022-12-19T00:51:29.000Z,40.42
2022-12-19T00:52:31.295Z,38.80
2022-12-19T00:53:35.531Z,37.78
2022-12-19T00:54:38.653Z,39.70
2022-12-19T00:55:41.215Z,36.15
2022-12-19T00:56:44.576Z,37.80
2022-12-19T00:57:47.205Z,38.13
2022-12-19T00:58:50.306Z,35.88
2022-12-19T00:59:52.593Z,38.17
2022-12-19T01:00:55.033Z,35.13
2022-12-19T01:01:57.781Z,36.25
2022-12-19T01:03:01.216Z,36.63
2022-12-19T01:05:30.868Z,39.33
2022-12-19T01:06:33.671Z,37.00
2022-12-19T01:07:37.450Z,39.88
2022-12-19T01:08:40.044Z,37.53
2022-12-19T01:09:42.395Z,38.13
2022-12-19T01:10:46.666Z,36.05
2022-12-19T01:12:25.283Z,33.25
2022-12-19T01:13:32.525Z,35.83
2022-12-19T01:14:35.678Z,30.25
2022-12-19T01:15:40.582Z,35.42
2022-12-19T01:16:42.908Z,30.75
2022-12-19T01:17:45.417Z,32.40
2022-12-19T01:18:47.742Z,32.60
2022-12-19T01:19:50.069Z,35.28
2022-12-19T01:20:52.523Z,37.63
2022-12-19T01:21:54.962Z,31.95
2022-12-19T01:22:58.885Z,30.45
2022-12-19T01:24:03.961Z,34.75
2022-12-19T01:25:06.741Z,34.97
2022-12-19T01:26:09.108Z,30.42
2022-12-19T01:27:11.435Z,30.52
2022-12-19T01:28:15.301Z,29.08
2022-12-19T01:29:19.130Z,35.83
2022-12-19T01:30:23.270Z,29.90
2022-12-19T01:31:27.009Z,33.28
2022-12-19T01:32:30.999Z,31.33
2022-12-19T01:33:35.762Z,31.40
2022-12-19T01:34:39.746Z,28.48
2022-12-19T01:35:43.248Z,32.22
2022-12-19T01:36:47.012Z,30.85
2022-12-19T01:37:51.128Z,29.38
2022-12-19T01:38:56.702Z,30.83
2022-12-19T01:39:59.020Z,31.02
2022-12-19T01:41:01.846Z,29.85
2022-12-19T01:42:19.612Z,28.17
2022-12-19T01:43:28.655Z,30.33
2022-12-19T01:44:31.978Z,29.75
2022-12-19T01:45:43.563Z,31.83
2022-12-19T01:46:48.602Z,30.80
2022-12-19T01:47:53.955Z,30.63
2022-12-19T01:48:57.398Z,26.48
2022-12-19T01:50:01.327Z,28.17
2022-12-19T01:51:19.743Z,30.95
2022-12-19T01:52:23.712Z,28.48
2022-12-19T01:53:30.182Z,25.40
2022-12-19T01:54:36.755Z,27.00
2022-12-19T01:55:41.089Z,27.95
2022-12-19T01:56:47.194Z,29.20
2022-12-19T01:57:49.623Z,28.60
2022-12-19T01:59:02.421Z,25.75
2022-12-19T02:00:12.513Z,25.65
2022-12-19T02:01:17.894Z,26.70
2022-12-19T02:02:26.616Z,27.15
2022-12-19T02:03:31.885Z,26.92
2022-12-19T02:04:34.844Z,28.15
2022-12-19T02:05:39.072Z,30.00
2022-12-19T02:06:42.952Z,26.70
2022-12-19T02:07:46.599Z,25.95
2022-12-19T02:08:49.367Z,27.02
2022-12-19T02:09:56.985Z,25.45
2022-12-19T02:11:03.536Z,27.63
2022-12-19T02:12:07.772Z,26.45
2022-12-19T02:13:12.755Z,24.02
2022-12-19T02:14:16.667Z,23.80
2022-12-19T02:15:20.884Z,27.88
2022-12-19T02:16:33.942Z,26.75
2022-12-19T02:17:52.770Z,25.50
2022-12-19T02:19:12.411Z,26.38
2022-12-19T02:20:26.477Z,23.45
2022-12-19T02:21:54.545Z,24.90
2022-12-19T02:23:00.564Z,22.63
2022-12-19T02:24:26.668Z,25.27
2022-12-19T02:25:56.828Z,23.23
2022-12-19T02:27:30.255Z,24.88
2022-12-19T02:29:12.285Z,24.67
2022-12-19T02:30:35.738Z,22.63
2022-12-19T02:32:03.802Z,26.15
2022-12-19T02:33:17.407Z,23.27
2022-12-19T02:34:53.079Z,24.80
2022-12-19T02:36:05.259Z,26.20
2022-12-19T02:37:12.636Z,27.20
2022-12-19T02:38:27.010Z,25.85
2022-12-19T02:39:55.197Z,25.05
2022-12-19T02:41:05.383Z,27.50
2022-12-19T02:42:11.634Z,25.88
2022-12-19T02:43:15.745Z,27.60
2022-12-19T02:44:28.757Z,24.20
2022-12-19T02:45:35.804Z,24.83
2022-12-19T02:46:38.605Z,26.27
2022-12-19T02:47:42.353Z,27.15
2022-12-19T02:48:45.588Z,25.15
2022-12-19T02:49:48.635Z,29.35
2022-12-19T02:50:51.917Z,27.25
2022-12-19T02:51:54.727Z,26.65
2022-12-19T02:52:57.956Z,24.73
2022-12-19T02:54:00.353Z,31.95
2022-12-19T02:55:09.554Z,22.83
2022-12-19T02:56:28.556Z,26.20
2022-12-19T02:57:49.925Z,26.80
2022-12-19T02:58:58.169Z,27.52
2022-12-19T03:00:07.865Z,27.40
2022-12-19T03:01:40.196Z,26.00
2022-12-19T03:03:15.491Z,26.02
2022-12-19T03:04:40.179Z,25.50
2022-12-19T03:06:27.389Z,22.88
2022-12-19T03:07:34.108Z,23.40
2022-12-19T03:09:08.554Z,25.27
2022-12-19T03:10:38.898Z,25.88
2022-12-19T03:11:42.550Z,23.50
2022-12-19T03:12:57.542Z,22.48
2022-12-19T03:14:05.714Z,25.67
2022-12-19T03:15:11.948Z,25.00
2022-12-19T03:16:15.164Z,21.23
2022-12-19T03:17:20.729Z,23.60
2022-12-19T03:18:23.809Z,24.67
2022-12-19T03:19:26.226Z,26.38
2022-12-19T03:20:49.716Z,21.70
2022-12-19T03:21:52.870Z,25.23
2022-12-19T03:22:55.205Z,23.95
2022-12-19T03:23:58.715Z,22.85
2022-12-19T03:25:01.727Z,21.45
2022-12-19T03:26:19.634Z,22.33
2022-12-19T03:27:28.406Z,22.83
2022-12-19T03:28:42.776Z,25.17
2022-12-19T03:29:54.904Z,24.70
2022-12-19T03:30:59.691Z,21.05
2022-12-19T03:32:07.082Z,27.23
2022-12-19T03:33:11.893Z,21.23
2022-12-19T03:34:25.264Z,23.58
2022-12-19T03:35:31.686Z,21.17
2022-12-19T03:36:41.922Z,25.15
2022-12-19T03:37:46.703Z,24.42
2022-12-19T03:38:49.844Z,24.25
2022-12-19T03:39:57.972Z,25.23
2022-12-19T03:41:02.547Z,21.67
2022-12-19T03:42:25.299Z,20.58
2022-12-19T03:43:29.853Z,20.65
2022-12-19T03:44:35.527Z,22.38
2022-12-19T03:45:59.332Z,19.95
2022-12-19T03:47:11.346Z,24.45
2022-12-19T03:48:38.114Z,24.85
2022-12-19T03:49:40.688Z,20.88
2022-12-19T03:51:04.597Z,23.35
2022-12-19T03:52:22.198Z,20.55
2022-12-19T03:53:42.919Z,24.83
2022-12-19T03:55:12.603Z,24.67
2022-12-19T03:56:46.113Z,20.98
2022-12-19T03:58:12.090Z,19.55
2022-12-19T03:59:25.207Z,24.15
2022-12-19T04:00:28.416Z,23.20
2022-12-19T04:01:33.876Z,24.40
2022-12-19T04:02:38.617Z,23.42
2022-12-19T04:03:41.103Z,22.83
2022-12-19T04:04:51.455Z,20.92
2022-12-19T04:05:54.799Z,26.48
2022-12-19T04:06:58.396Z,22.50
2022-12-19T04:08:07.979Z,22.92
2022-12-19T04:09:10.865Z,20.92
2022-12-19T04:10:19.240Z,22.38
2022-12-19T04:11:22.436Z,19.80
2022-12-19T04:12:33.239Z,20.13
2022-12-19T04:13:43.825Z,26.75
2022-12-19T04:14:47.121Z,60.63
2022-12-19T04:16:18.468Z,645.60
2022-12-19T04:17:50.958Z,167.88
2022-12-19T04:18:59.500Z,182.85
2022-12-19T04:20:16.977Z,157.13
2022-12-19T04:21:25.836Z,126.70
2022-12-19T04:22:50.909Z,112.68
2022-12-19T04:24:00.587Z,112.40
2022-12-19T04:25:11.277Z,94.32
2022-12-19T04:26:14.847Z,83.40
2022-12-19T04:27:18.334Z,85.55
2022-12-19T04:28:26.865Z,79.10
2022-12-19T04:29:34.090Z,76.25
2022-12-19T04:30:39.032Z,78.43
2022-12-19T04:31:42.187Z,70.18
2022-12-19T04:32:45.210Z,68.90
2022-12-19T04:33:47.761Z,64.32
2022-12-19T04:34:50.284Z,64.60
2022-12-19T04:35:52.815Z,64.88
2022-12-19T04:36:55.442Z,63.22
2022-12-19T04:37:58.016Z,55.83
2022-12-19T04:39:00.376Z,56.65
2022-12-19T04:40:03.259Z,60.42
2022-12-19T04:41:06.043Z,46.10
2022-12-19T04:42:08.416Z,126.13
2022-12-19T04:43:10.920Z,57.47
2022-12-19T04:44:13.728Z,45.70
2022-12-19T04:45:17.379Z,47.55
2022-12-19T04:46:19.766Z,44.40
2022-12-19T04:47:22.179Z,47.85
2022-12-19T04:48:24.969Z,44.20
2022-12-19T04:49:27.885Z,43.40
2022-12-19T04:50:32.230Z,44.13
2022-12-19T04:51:34.588Z,41.20
2022-12-19T04:52:37.004Z,39.60
2022-12-19T04:53:39.423Z,48.13
2022-12-19T04:54:41.745Z,216.25
2022-12-19T04:55:44.242Z,217.95
2022-12-19T04:56:47.313Z,144.18
2022-12-19T04:57:49.809Z,139.05
2022-12-19T04:59:10.385Z,115.25
2022-12-19T05:00:13.970Z,93.18
2022-12-19T05:01:18.435Z,91.78
2022-12-19T05:02:21.012Z,86.72
2022-12-19T05:03:23.730Z,79.25
2022-12-19T05:04:26.726Z,81.50
2022-12-19T05:05:29.972Z,73.45
2022-12-19T05:06:32.681Z,69.00
2022-12-19T05:07:35.236Z,66.43
2022-12-19T05:08:39.829Z,63.67
2022-12-19T05:09:42.272Z,62.50
2022-12-19T05:10:44.731Z,59.75
2022-12-19T05:11:47.276Z,62.17
2022-12-19T05:12:49.633Z,58.10
2022-12-19T05:13:52.125Z,51.20
2022-12-19T05:14:54.602Z,54.33
2022-12-19T05:16:08.675Z,53.90
2022-12-19T05:17:11.163Z,52.08
2022-12-19T05:18:13.539Z,52.05
2022-12-19T05:19:16.870Z,49.95
2022-12-19T05:20:19.328Z,53.10
2022-12-19T05:21:22.681Z,48.13
2022-12-19T05:22:28.139Z,50.97
2022-12-19T05:23:30.783Z,54.25
2022-12-19T05:24:33.647Z,50.67
2022-12-19T05:25:36.040Z,47.75
2022-12-19T05:26:38.403Z,129.57
2022-12-19T05:27:40.845Z,239.95
2022-12-19T05:28:43.300Z,202.40
2022-12-19T05:29:45.719Z,176.80
2022-12-19T05:30:52.269Z,133.48
2022-12-19T05:31:55.063Z,125.15
2022-12-19T05:32:57.407Z,112.15
2022-12-19T05:33:59.717Z,104.97
2022-12-19T05:35:02.071Z,107.03
2022-12-19T05:36:05.031Z,80.65
2022-12-19T05:37:07.332Z,79.80
2022-12-19T05:38:09.758Z,83.35
2022-12-19T05:39:12.226Z,80.15
2022-12-19T05:40:14.754Z,70.80
2022-12-19T05:41:19.372Z,63.47
2022-12-19T05:42:21.694Z,79.03
2022-12-19T05:43:24.460Z,70.05
2022-12-19T05:44:26.784Z,73.57
2022-12-19T05:45:29.742Z,62.40
2022-12-19T05:46:32.337Z,66.07
2022-12-19T05:47:35.173Z,64.57
2022-12-19T05:48:38.014Z,62.65
2022-12-19T05:49:40.363Z,62.75
2022-12-19T05:50:48.009Z,65.13
2022-12-19T05:51:50.339Z,70.20
2022-12-19T05:52:52.679Z,69.72
2022-12-19T05:53:55.140Z,67.50
2022-12-19T05:54:58.404Z,68.80
2022-12-19T05:56:13.266Z,58.55
2022-12-19T05:57:16.737Z,64.85
2022-12-19T05:58:22.518Z,62.15
2022-12-19T06:01:19.025Z,58.53
2022-12-19T06:02:21.522Z,64.18
2022-12-19T06:03:24.090Z,64.00
2022-12-19T06:04:26.412Z,57.47
2022-12-19T06:05:29.311Z,54.97
2022-12-19T06:06:31.993Z,54.95
2022-12-19T06:07:35.356Z,55.10
2022-12-19T06:08:38.091Z,70.25
2022-12-19T06:09:40.356Z,64.15
2022-12-19T06:10:42.671Z,61.78
2022-12-19T06:11:45.009Z,62.97
2022-12-19T06:12:47.298Z,64.00
2022-12-19T06:13:49.814Z,53.30
2022-12-19T06:14:52.179Z,70.30
2022-12-19T06:16:05.585Z,59.72
2022-12-19T06:17:07.940Z,54.53
2022-12-19T06:18:10.258Z,51.33
2022-12-19T06:19:14.826Z,54.95
2022-12-19T06:20:17.899Z,51.90
2022-12-19T06:21:22.590Z,49.53
2022-12-19T06:22:24.918Z,53.47
2022-12-19T06:23:29.639Z,56.70
2022-12-19T06:24:32.166Z,57.05
2022-12-19T06:25:37.779Z,48.72
2022-12-19T06:26:40.704Z,55.58
2022-12-19T06:27:43.134Z,47.30
2022-12-19T06:28:45.474Z,53.65
2022-12-19T06:29:47.786Z,54.28
2022-12-19T06:30:50.132Z,49.45
2022-12-19T06:31:52.900Z,49.70
2022-12-19T06:32:55.914Z,50.08
2022-12-19T06:33:59.027Z,51.95
2022-12-19T06:35:05.038Z,52.65
2022-12-19T06:36:14.292Z,48.28
2022-12-19T06:37:16.790Z,48.92
2022-12-19T06:38:19.116Z,49.88
2022-12-19T06:39:22.354Z,82.45
2022-12-19T06:41:03.162Z,95.40
2022-12-19T06:42:23.840Z,350.73
2022-12-19T06:43:26.472Z,280.25
2022-12-19T06:44:28.762Z,251.63
2022-12-19T06:45:31.520Z,262.13
2022-12-19T06:46:34.460Z,258.55
2022-12-19T06:47:36.882Z,237.00
2022-12-19T06:48:39.218Z,207.98
2022-12-19T06:49:41.548Z,141.25
2022-12-19T06:50:43.847Z,125.72
2022-12-19T06:51:46.542Z,101.47
2022-12-19T06:52:48.934Z,89.60
2022-12-19T06:53:51.737Z,92.70
2022-12-19T06:54:54.009Z,84.95
2022-12-19T06:55:58.482Z,82.38
2022-12-19T06:57:01.330Z,76.22
2022-12-19T06:58:04.204Z,88.22
2022-12-19T06:59:08.109Z,78.72
2022-12-19T07:00:11.342Z,77.20
2022-12-19T07:01:52.775Z,73.28
2022-12-19T07:02:57.355Z,68.90
2022-12-19T07:03:59.880Z,68.75
2022-12-19T07:05:05.822Z,67.45
2022-12-19T07:06:08.451Z,73.97
2022-12-19T07:07:10.853Z,65.53
2022-12-19T07:08:13.651Z,65.05
2022-12-19T07:09:16.268Z,57.25
2022-12-19T07:10:18.816Z,63.35
2022-12-19T07:11:21.212Z,70.10
2022-12-19T07:12:23.538Z,64.57
2022-12-19T07:13:27.366Z,57.30
2022-12-19T07:14:29.782Z,57.30
2022-12-19T07:15:34.909Z,61.63
2022-12-19T07:16:37.417Z,61.28
2022-12-19T07:17:39.883Z,58.60
2022-12-19T07:18:43.425Z,58.40
2022-12-19T07:19:45.811Z,59.10
2022-12-19T07:20:48.213Z,57.25
2022-12-19T07:21:50.586Z,60.13
2022-12-19T07:22:53.146Z,56.30
2022-12-19T07:23:55.867Z,54.28
2022-12-19T07:24:59.408Z,52.45
2022-12-19T07:26:01.920Z,53.78
2022-12-19T07:27:08.149Z,53.00
2022-12-19T07:28:10.643Z,50.45
2022-12-19T07:29:13.900Z,53.08
2022-12-19T07:30:16.236Z,40.33
2022-12-19T07:31:18.592Z,188.48
2022-12-19T07:32:21.762Z,53.22
2022-12-19T07:33:24.102Z,54.90
2022-12-19T07:34:26.502Z,56.13
2022-12-19T07:35:28.838Z,48.78
2022-12-19T07:36:31.390Z,49.33
2022-12-19T07:37:33.999Z,43.17
2022-12-19T07:38:36.902Z,45.55
2022-12-19T07:39:39.243Z,47.50
2022-12-19T07:40:41.824Z,48.85
2022-12-19T07:41:44.156Z,48.22
2022-12-19T07:42:46.506Z,54.33
2022-12-19T07:43:49.200Z,53.22
2022-12-19T07:44:51.544Z,55.75
2022-12-19T07:45:55.396Z,53.60
2022-12-19T07:46:57.785Z,45.95
2022-12-19T07:48:01.507Z,51.83
2022-12-19T07:49:03.845Z,55.55
2022-12-19T07:50:06.546Z,47.53
2022-12-19T07:51:08.862Z,55.28
2022-12-19T07:52:11.217Z,57.88
2022-12-19T07:53:13.535Z,55.00
2022-12-19T07:54:15.875Z,51.55
2022-12-19T07:55:18.189Z,50.47
2022-12-19T07:56:20.569Z,53.97
2022-12-19T07:57:23.045Z,53.38
2022-12-19T07:58:27.850Z,53.20
2022-12-19T07:59:35.637Z,44.28
2022-12-19T08:00:41.397Z,60.53
2022-12-19T08:01:43.766Z,50.22
2022-12-19T08:02:46.739Z,50.33
2022-12-19T08:03:49.076Z,48.33
2022-12-19T08:04:51.496Z,47.70
2022-12-19T08:05:58.736Z,47.38
2022-12-19T08:07:02.302Z,48.80
2022-12-19T08:08:04.838Z,41.20
2022-12-19T08:09:07.126Z,47.58
2022-12-19T08:10:11.489Z,52.45
2022-12-19T08:11:17.415Z,48.80
2022-12-19T08:12:19.955Z,45.65
2022-12-19T08:13:22.428Z,49.80
2022-12-19T08:14:25.059Z,40.70
2022-12-19T08:15:27.407Z,41.75
2022-12-19T08:16:29.873Z,214.18
2022-12-19T08:17:32.479Z,311.67
2022-12-19T08:18:34.905Z,136.48
2022-12-19T08:19:37.265Z,107.72
2022-12-19T08:20:39.617Z,166.60
2022-12-19T08:21:41.949Z,134.13
2022-12-19T08:22:44.577Z,88.88
2022-12-19T08:23:47.053Z,88.90
2022-12-19T08:24:49.430Z,66.40
2022-12-19T08:26:10.451Z,60.28
2022-12-19T08:27:12.808Z,68.82
2022-12-19T08:28:15.473Z,64.95
2022-12-19T08:29:17.943Z,60.60
2022-12-19T08:30:20.326Z,60.15
2022-12-19T08:31:25.077Z,57.60
2022-12-19T08:32:29.063Z,58.83
2022-12-19T08:33:31.725Z,57.85
2022-12-19T08:34:34.140Z,53.72
2022-12-19T08:35:37.469Z,53.33
2022-12-19T08:36:39.825Z,54.63
2022-12-19T08:37:42.339Z,57.92
2022-12-19T08:38:45.174Z,50.78
2022-12-19T08:39:47.706Z,51.00
2022-12-19T08:40:54.538Z,55.13
2022-12-19T08:41:57.031Z,50.83
2022-12-19T08:42:59.471Z,49.80
2022-12-19T08:44:02.193Z,46.85
2022-12-19T08:45:05.428Z,47.17
2022-12-19T08:46:09.261Z,51.72
2022-12-19T08:47:11.758Z,47.40
2022-12-19T08:48:14.156Z,46.70
2022-12-19T08:49:16.681Z,170.77
2022-12-19T08:50:19.114Z,129.38
2022-12-19T08:51:21.483Z,74.40
2022-12-19T08:52:24.629Z,74.25
2022-12-19T08:53:28.666Z,84.53
2022-12-19T08:54:31.030Z,89.53
2022-12-19T08:55:35.617Z,72.20
2022-12-19T08:56:38.393Z,76.82
2022-12-19T08:57:48.236Z,69.60
2022-12-19T08:58:53.622Z,71.78
2022-12-19T08:59:55.941Z,78.80
2022-12-19T09:01:05.289Z,76.38
2022-12-19T09:02:10.782Z,72.18
2022-12-19T09:03:13.501Z,64.90
2022-12-19T09:05:26.055Z,67.53
2022-12-19T09:06:05.461Z,68.90
2022-12-19T09:07:01.818Z,68.13
2022-12-19T09:08:04.614Z,64.13
2022-12-19T09:09:07.195Z,68.72
2022-12-19T09:10:09.662Z,67.50
2022-12-19T09:11:14.410Z,60.83
2022-12-19T09:12:16.867Z,57.20
2022-12-19T09:13:19.265Z,37.45
2022-12-19T09:14:21.786Z,57.75
2022-12-19T09:15:24.535Z,104.82
2022-12-19T09:16:28.382Z,88.38
2022-12-19T09:17:30.757Z,82.30
2022-12-19T09:18:34.677Z,72.97
2022-12-19T09:19:37.170Z,60.97
2022-12-19T09:20:40.097Z,52.10
2022-12-19T09:21:42.629Z,50.83
2022-12-19T09:22:45.017Z,53.42
2022-12-19T09:23:52.984Z,56.95
2022-12-19T09:24:55.366Z,60.10
2022-12-19T09:26:09.556Z,57.92
2022-12-19T09:27:12.032Z,52.38
2022-12-19T09:28:29.707Z,47.63
2022-12-19T09:29:35.335Z,49.95
2022-12-19T09:30:38.407Z,50.38
2022-12-19T09:31:41.136Z,48.97
2022-12-19T09:32:43.921Z,47.72
2022-12-19T09:33:47.327Z,54.45
2022-12-19T09:34:49.787Z,50.55
2022-12-19T09:35:53.142Z,47.30
2022-12-19T09:36:59.092Z,48.45
2022-12-19T09:38:01.749Z,48.95
2022-12-19T09:39:04.287Z,46.50
2022-12-19T09:40:07.459Z,47.33
2022-12-19T09:41:31.787Z,45.55
2022-12-19T09:42:57.855Z,47.00
2022-12-19T09:44:21.850Z,46.78
2022-12-19T09:45:42.691Z,47.80
2022-12-19T09:46:52.006Z,44.95
2022-12-19T09:47:57.633Z,43.15
2022-12-19T09:49:01.864Z,45.38
2022-12-19T09:50:31.363Z,42.10
2022-12-19T09:51:58.729Z,42.83
2022-12-19T09:53:15.836Z,40.15
2022-12-19T09:54:24.747Z,41.08
2022-12-19T09:55:41.037Z,43.08
2022-12-19T09:56:46.034Z,41.67
2022-12-19T09:58:01.229Z,45.60
2022-12-19T09:59:47.939Z,43.08
2022-12-19T10:01:00.027Z,41.85
2022-12-19T10:02:24.703Z,40.85
2022-12-19T10:03:40.781Z,41.80
2022-12-19T10:04:51.684Z,36.83
2022-12-19T10:07:11.503Z,36.47
2022-12-19T10:07:59.654Z,42.47
2022-12-19T10:10:34.025Z,39.15
2022-12-19T10:12:40.083Z,30.15
2022-12-19T10:12:42.887Z,50.50
2022-12-19T10:14:16.261Z,44.75
2022-12-19T10:15:35.687Z,78.75
2022-12-19T10:17:22.137Z,103.05
2022-12-19T10:18:24.601Z,49.33
2022-12-19T10:19:31.568Z,45.38
2022-12-19T10:20:48.405Z,46.10
2022-12-19T10:22:19.539Z,43.83
2022-12-19T10:23:30.863Z,42.03
2022-12-19T10:25:08.062Z,40.72
2022-12-19T10:26:20.666Z,40.25
2022-12-19T10:27:59.559Z,46.13
2022-12-19T10:29:47.120Z,41.63
2022-12-19T10:31:11.466Z,44.60
2022-12-19T10:32:24.169Z,38.80
2022-12-19T10:33:34.542Z,38.45
2022-12-19T10:34:43.305Z,37.58
2022-12-19T10:35:49.235Z,38.70
2022-12-19T10:37:28.866Z,36.03
2022-12-19T10:38:39.789Z,37.55
2022-12-19T10:40:24.767Z,36.28
2022-12-19T10:41:32.527Z,34.90
2022-12-19T10:42:38.243Z,36.75
2022-12-19T10:43:57.423Z,36.67
2022-12-19T10:45:04.570Z,32.45
2022-12-19T10:46:37.156Z,29.50
2022-12-19T10:47:41.047Z,35.78
2022-12-19T10:48:43.401Z,28.63
2022-12-19T10:49:45.779Z,37.50
2022-12-19T10:50:49.237Z,33.72
2022-12-19T10:52:00.369Z,40.72
2022-12-19T10:53:07.662Z,35.63
2022-12-19T10:54:10.126Z,39.55
2022-12-19T10:55:31.442Z,36.92
2022-12-19T10:56:37.703Z,32.78
2022-12-19T10:57:40.574Z,35.55
2022-12-19T10:58:45.742Z,38.92
2022-12-19T11:00:04.776Z,35.97
2022-12-19T11:01:40.077Z,34.75
2022-12-19T11:02:48.292Z,36.67
2022-12-19T11:04:22.645Z,33.40
2022-12-19T11:05:40.129Z,30.13
2022-12-19T11:06:49.880Z,30.67
2022-12-19T11:08:02.509Z,30.08
2022-12-19T11:09:24.995Z,33.38
2022-12-19T11:13:14.807Z,33.90
2022-12-19T11:15:50.441Z,36.22
2022-12-19T11:18:08.686Z,31.90
2022-12-19T11:19:13.501Z,31.20
2022-12-19T11:23:22.252Z,30.60
2022-12-19T11:24:30.616Z,26.52
2022-12-19T11:29:19.252Z,27.15
2022-12-19T11:29:27.343Z,32.72
2022-12-19T11:29:30.746Z,31.88
2022-12-19T11:29:31.732Z,27.63
2022-12-19T11:30:05.572Z,31.40
2022-12-19T11:30:40.813Z,26.83
2022-12-19T11:30:43.171Z,28.43
2022-12-19T11:32:50.476Z,34.45
2022-12-19T11:34:05.260Z,25.40
2022-12-19T11:35:22.004Z,31.05
2022-12-19T11:36:34.819Z,31.92
2022-12-19T11:37:44.358Z,33.08
2022-12-19T11:38:53.309Z,28.48
2022-12-19T11:40:01.849Z,30.45
2022-12-19T11:41:12.939Z,31.77
2022-12-19T11:42:24.840Z,28.60
2022-12-19T11:43:53.297Z,32.15
2022-12-19T11:45:02.802Z,28.58
2022-12-19T11:46:16.211Z,30.13
2022-12-19T11:47:40.427Z,33.72
2022-12-19T11:48:55.075Z,29.17
2022-12-19T11:50:11.172Z,27.83
2022-12-19T11:51:28.784Z,28.98
2022-12-19T11:53:05.859Z,28.80
2022-12-19T11:54:24.017Z,28.42
2022-12-19T11:55:33.048Z,29.00
2022-12-19T11:56:35.566Z,28.20
2022-12-19T11:57:39.524Z,28.15
2022-12-19T11:58:52.703Z,30.80
2022-12-19T11:59:59.825Z,28.42
2022-12-19T12:01:34.191Z,26.98
2022-12-19T12:03:10.193Z,30.33
2022-12-19T12:04:27.071Z,26.25
2022-12-19T12:05:43.662Z,30.40
2022-12-19T12:06:54.203Z,24.13
2022-12-19T12:08:49.414Z,26.45
2022-12-19T12:13:47.739Z,27.20
2022-12-19T12:15:56.099Z,25.48
2022-12-19T12:20:12.824Z,26.35
2022-12-19T12:20:22.790Z,28.75
2022-12-19T12:23:06.662Z,27.30
2022-12-19T12:30:43.379Z,29.83
2022-12-19T12:31:13.895Z,23.77
2022-12-19T12:31:20.455Z,24.95
2022-12-19T12:31:32.466Z,22.73
2022-12-19T12:31:49.684Z,28.48
2022-12-19T12:31:50.279Z,28.35
2022-12-19T12:31:55.326Z,28.92
2022-12-19T12:32:03.368Z,26.13
2022-12-19T12:35:50.035Z,25.00
2022-12-19T12:35:52.125Z,22.35
2022-12-19T12:35:54.548Z,30.13
2022-12-19T12:38:19.049Z,23.38
2022-12-19T12:39:24.313Z,23.50
2022-12-19T12:41:14.478Z,27.02
2022-12-19T12:42:47.574Z,20.63
2022-12-19T12:43:58.739Z,25.02
2022-12-19T12:45:13.186Z,18.45
2022-12-19T12:46:31.023Z,19.30
2022-12-19T12:47:33.583Z,20.60
2022-12-19T12:48:39.101Z,20.33
2022-12-19T12:49:45.307Z,26.40
2022-12-19T12:50:54.967Z,19.23
2022-12-19T12:52:00.479Z,22.13
2022-12-19T12:53:09.219Z,26.13
2022-12-19T12:54:14.840Z,19.83
2022-12-19T12:55:25.875Z,20.90
2022-12-19T12:56:28.888Z,21.33
2022-12-19T12:57:37.290Z,22.55
2022-12-19T12:58:43.874Z,17.75
2022-12-19T12:59:47.941Z,20.50
2022-12-19T13:01:17.517Z,21.00
2022-12-19T13:02:25.259Z,18.73
2022-12-19T13:03:29.350Z,18.80
2022-12-19T13:04:35.371Z,27.33
2022-12-19T13:05:43.470Z,16.00
2022-12-19T13:06:51.460Z,24.58
2022-12-19T13:07:55.118Z,23.30
2022-12-19T13:09:09.609Z,36.35
2022-12-19T13:10:17.206Z,107.57
2022-12-19T13:11:38.301Z,89.32
2022-12-19T13:13:15.822Z,42.67
2022-12-19T13:14:39.184Z,27.45
2022-12-19T13:15:44.261Z,25.55
2022-12-19T13:16:50.173Z,26.90
2022-12-19T13:17:52.755Z,25.70
2022-12-19T13:19:19.708Z,29.25
2022-12-19T13:20:26.570Z,28.67
2022-12-19T13:22:05.396Z,27.20
2022-12-19T13:23:22.737Z,24.77
2022-12-19T13:24:25.082Z,26.45
2022-12-19T13:25:47.584Z,27.67
2022-12-19T13:26:52.249Z,26.08
2022-12-19T13:28:01.762Z,29.08
2022-12-19T13:29:30.852Z,29.10
2022-12-19T13:31:13.534Z,24.77
2022-12-19T13:32:11.463Z,27.88
2022-12-19T13:33:15.555Z,21.83
2022-12-19T13:34:19.315Z,29.25
2022-12-19T13:36:25.215Z,30.02
2022-12-19T13:39:56.638Z,25.17
2022-12-19T13:40:01.457Z,23.30
2022-12-19T13:40:33.222Z,22.75
2022-12-19T13:42:00.972Z,21.63
2022-12-19T13:43:42.529Z,28.35
2022-12-19T13:44:45.067Z,42.28
2022-12-19T13:45:59.512Z,79.43
2022-12-19T13:47:02.533Z,63.42
2022-12-19T13:48:05.565Z,180.73
2022-12-19T13:49:25.030Z,124.53
2022-12-19T13:50:38.037Z,69.28
2022-12-19T13:51:47.948Z,43.53
2022-12-19T13:52:53.662Z,30.67
2022-12-19T13:53:59.817Z,31.02
2022-12-19T13:55:03.286Z,26.35
2022-12-19T13:56:11.377Z,23.95
2022-12-19T13:57:30.341Z,24.70
2022-12-19T13:58:40.124Z,26.50
2022-12-19T13:59:59.659Z,22.17
2022-12-19T14:01:20.776Z,20.90
2022-12-19T14:02:44.174Z,22.02
2022-12-19T14:03:49.332Z,17.23
2022-12-19T14:04:52.047Z,19.42
2022-12-19T14:06:16.663Z,18.48
2022-12-19T14:07:39.261Z,17.73
2022-12-19T14:08:45.412Z,16.60
2022-12-19T14:11:33.790Z,20.58
2022-12-19T14:11:42.086Z,18.00
2022-12-19T14:13:57.268Z,14.68
2022-12-19T14:14:42.373Z,17.50
2022-12-19T14:15:52.225Z,18.75
2022-12-19T14:16:55.867Z,20.73
2022-12-19T14:18:44.565Z,19.55
2022-12-19T14:19:52.170Z,16.23
2022-12-19T14:22:04.748Z,16.88
2022-12-19T14:22:36.200Z,16.67
2022-12-19T14:23:43.905Z,17.38
2022-12-19T14:25:32.087Z,15.90
2022-12-19T14:28:19.921Z,16.52
2022-12-19T14:28:25.154Z,17.50
2022-12-19T14:30:28.572Z,16.17
2022-12-19T14:31:02.438Z,16.23
2022-12-19T14:32:41.993Z,17.63
2022-12-19T14:33:59.104Z,18.05
2022-12-19T14:36:10.440Z,17.10
2022-12-19T14:36:33.132Z,20.75
2022-12-19T14:38:37.383Z,16.25
2022-12-19T14:39:25.134Z,21.33
2022-12-19T14:40:32.910Z,19.23
2022-12-19T14:43:30.233Z,16.40
2022-12-19T14:43:58.049Z,15.80
2022-12-19T14:52:35.934Z,15.75
2022-12-19T14:54:15.600Z,16.63
2022-12-19T14:54:15.968Z,18.90
2022-12-19T14:54:21.093Z,17.48
2022-12-19T14:54:28.081Z,17.38
2022-12-19T14:54:34.887Z,23.75
2022-12-19T14:56:08.173Z,22.88
2022-12-19T14:56:59.610Z,50.47
2022-12-19T14:58:54.942Z,55.53
2022-12-19T14:59:48.567Z,25.63
2022-12-19T15:01:10.624Z,29.90
2022-12-19T15:02:27.959Z,24.88
2022-12-19T15:04:51.294Z,29.33
2022-12-19T15:05:18.862Z,20.27
2022-12-19T15:07:07.385Z,23.80
2022-12-19T15:07:51.796Z,22.20
2022-12-19T15:11:00.328Z,18.52
2022-12-19T15:11:07.500Z,19.17
2022-12-19T15:14:03.952Z,14.70
2022-12-19T15:14:56.395Z,17.85
2022-12-19T15:15:58.802Z,21.02
2022-12-19T15:17:31.815Z,21.25